sensor_id;sensor_type;location;lat;lon;timestamp;temperature;humidity
14670;DHT22;7423;48.722;9.350;2024-03-22T00:01:50;13.00;99.90
14670;DHT22;7423;48.722;9.350;2024-03-22T00:04:17;13.00;99.90
14670;DHT22;7423;48.722;9.350;2024-03-22T00:06:45;13.00;99.90
14670;DHT22;7423;48.722;9.350;2024-03-22T00:09:12;13.00;99.90
14670;DHT22;7423;48.722;9.350;2024-03-22T00:11:43;12.90;99.90
14670;DHT22;7423;48.722;9.350;2024-03-22T00:14:09;12.90;99.90
14670;DHT22;7423;48.722;9.350;2024-03-22T00:16:36;12.90;99.90
14670;DHT22;7423;48.722;9.350;2024-03-22T00:19:02;12.90;99.90
14670;DHT22;7423;48.722;9.350;2024-03-22T00:21:28;12.80;99.90
14670;DHT22;7423;48.722;9.350;2024-03-22T00:23:55;12.80;99.90
14670;DHT22;7423;48.722;9.350;2024-03-22T00:26:21;12.70;99.90
14670;DHT22;7423;48.722;9.350;2024-03-22T00:28:47;12.70;99.90
14670;DHT22;7423;48.722;9.350;2024-03-22T00:31:14;12.60;99.90
14670;DHT22;7423;48.722;9.350;2024-03-22T00:33:40;12.60;99.90
14670;DHT22;7423;48.722;9.350;2024-03-22T00:36:07;12.50;99.90
14670;DHT22;7423;48.722;9.350;2024-03-22T00:38:33;12.50;99.90
14670;DHT22;7423;48.722;9.350;2024-03-22T00:40:59;12.50;99.90
14670;DHT22;7423;48.722;9.350;2024-03-22T00:43:25;12.50;99.90
14670;DHT22;7423;48.722;9.350;2024-03-22T00:45:51;12.40;99.90
14670;DHT22;7423;48.722;9.350;2024-03-22T00:48:17;12.40;99.90
14670;DHT22;7423;48.722;9.350;2024-03-22T00:50:43;12.40;99.90
14670;DHT22;7423;48.722;9.350;2024-03-22T00:53:09;12.40;99.90
14670;DHT22;7423;48.722;9.350;2024-03-22T00:55:35;12.30;99.90
14670;DHT22;7423;48.722;9.350;2024-03-22T00:58:02;12.30;99.90
14670;DHT22;7423;48.722;9.350;2024-03-22T01:00:28;12.30;99.90
14670;DHT22;7423;48.722;9.350;2024-03-22T01:02:54;12.40;99.90
14670;DHT22;7423;48.722;9.350;2024-03-22T01:05:20;12.30;99.90
14670;DHT22;7423;48.722;9.350;2024-03-22T01:07:46;12.20;99.90
14670;DHT22;7423;48.722;9.350;2024-03-22T01:10:12;12.20;99.90
14670;DHT22;7423;48.722;9.350;2024-03-22T01:12:38;12.20;99.90
14670;DHT22;7423;48.722;9.350;2024-03-22T01:15:06;12.20;99.90
14670;DHT22;7423;48.722;9.350;2024-03-22T01:17:33;12.10;99.90
14670;DHT22;7423;48.722;9.350;2024-03-22T01:19:59;12.10;99.90
14670;DHT22;7423;48.722;9.350;2024-03-22T01:22:25;12.10;99.90
14670;DHT22;7423;48.722;9.350;2024-03-22T01:24:51;12.20;99.90
14670;DHT22;7423;48.722;9.350;2024-03-22T01:27:17;12.20;99.90
14670;DHT22;7423;48.722;9.350;2024-03-22T01:29:43;12.10;99.90
14670;DHT22;7423;48.722;9.350;2024-03-22T01:32:09;12.10;99.90
14670;DHT22;7423;48.722;9.350;2024-03-22T01:34:36;12.10;99.90
14670;DHT22;7423;48.722;9.350;2024-03-22T01:37:01;12.20;99.90
14670;DHT22;7423;48.722;9.350;2024-03-22T01:39:28;12.10;99.90
14670;DHT22;7423;48.722;9.350;2024-03-22T01:41:54;12.00;99.90
14670;DHT22;7423;48.722;9.350;2024-03-22T01:44:27;12.00;99.90
14670;DHT22;7423;48.722;9.350;2024-03-22T01:46:53;11.90;99.90
14670;DHT22;7423;48.722;9.350;2024-03-22T01:49:21;11.90;99.90
14670;DHT22;7423;48.722;9.350;2024-03-22T01:51:47;11.90;99.90
14670;DHT22;7423;48.722;9.350;2024-03-22T01:54:15;11.80;99.90
14670;DHT22;7423;48.722;9.350;2024-03-22T01:56:42;11.80;99.90
14670;DHT22;7423;48.722;9.350;2024-03-22T01:59:09;11.70;99.90
14670;DHT22;7423;48.722;9.350;2024-03-22T02:01:36;11.70;99.90
14670;DHT22;7423;48.722;9.350;2024-03-22T02:04:02;11.60;99.90
14670;DHT22;7423;48.722;9.350;2024-03-22T02:06:28;11.60;99.90
14670;DHT22;7423;48.722;9.350;2024-03-22T02:08:54;11.60;99.90
14670;DHT22;7423;48.722;9.350;2024-03-22T02:11:21;11.50;99.90
14670;DHT22;7423;48.722;9.350;2024-03-22T02:13:47;11.50;99.90
14670;DHT22;7423;48.722;9.350;2024-03-22T02:16:13;11.50;99.90
14670;DHT22;7423;48.722;9.350;2024-03-22T02:18:39;11.50;99.90
14670;DHT22;7423;48.722;9.350;2024-03-22T02:21:05;11.50;99.90
14670;DHT22;7423;48.722;9.350;2024-03-22T02:23:35;11.50;99.90
14670;DHT22;7423;48.722;9.350;2024-03-22T02:26:02;11.50;99.90
14670;DHT22;7423;48.722;9.350;2024-03-22T02:28:30;11.40;99.90
14670;DHT22;7423;48.722;9.350;2024-03-22T02:30:58;11.40;99.90
14670;DHT22;7423;48.722;9.350;2024-03-22T02:33:24;11.40;99.90
14670;DHT22;7423;48.722;9.350;2024-03-22T02:35:50;11.40;99.90
14670;DHT22;7423;48.722;9.350;2024-03-22T02:38:17;11.30;99.90
14670;DHT22;7423;48.722;9.350;2024-03-22T02:40:44;11.30;99.90
14670;DHT22;7423;48.722;9.350;2024-03-22T02:43:11;11.30;99.90
14670;DHT22;7423;48.722;9.350;2024-03-22T02:45:38;11.30;99.90
14670;DHT22;7423;48.722;9.350;2024-03-22T02:48:05;11.30;99.90
14670;DHT22;7423;48.722;9.350;2024-03-22T02:50:38;11.20;99.90
14670;DHT22;7423;48.722;9.350;2024-03-22T02:53:04;11.20;99.90
14670;DHT22;7423;48.722;9.350;2024-03-22T02:55:39;11.20;99.90
14670;DHT22;7423;48.722;9.350;2024-03-22T02:58:09;11.10;99.90
14670;DHT22;7423;48.722;9.350;2024-03-22T03:00:38;11.10;99.90
14670;DHT22;7423;48.722;9.350;2024-03-22T03:03:05;11.10;99.90
14670;DHT22;7423;48.722;9.350;2024-03-22T03:05:31;11.10;99.90
14670;DHT22;7423;48.722;9.350;2024-03-22T03:07:58;11.10;99.90
14670;DHT22;7423;48.722;9.350;2024-03-22T03:10:24;11.10;99.90
14670;DHT22;7423;48.722;9.350;2024-03-22T03:12:51;11.00;99.90
14670;DHT22;7423;48.722;9.350;2024-03-22T03:15:17;11.10;99.90
14670;DHT22;7423;48.722;9.350;2024-03-22T03:17:43;11.20;99.90
14670;DHT22;7423;48.722;9.350;2024-03-22T03:20:09;11.10;99.90
14670;DHT22;7423;48.722;9.350;2024-03-22T03:22:40;11.10;99.90
14670;DHT22;7423;48.722;9.350;2024-03-22T03:25:06;11.00;99.90
14670;DHT22;7423;48.722;9.350;2024-03-22T03:27:33;11.00;99.90
14670;DHT22;7423;48.722;9.350;2024-03-22T03:29:59;11.00;99.90
14670;DHT22;7423;48.722;9.350;2024-03-22T03:32:25;10.90;99.90
14670;DHT22;7423;48.722;9.350;2024-03-22T03:34:52;10.90;99.90
14670;DHT22;7423;48.722;9.350;2024-03-22T03:37:18;10.90;99.90
14670;DHT22;7423;48.722;9.350;2024-03-22T03:39:44;10.90;99.90
14670;DHT22;7423;48.722;9.350;2024-03-22T03:42:10;10.90;99.90
14670;DHT22;7423;48.722;9.350;2024-03-22T03:44:36;10.90;99.90
14670;DHT22;7423;48.722;9.350;2024-03-22T03:47:02;10.80;99.90
14670;DHT22;7423;48.722;9.350;2024-03-22T03:49:28;10.80;99.90
14670;DHT22;7423;48.722;9.350;2024-03-22T03:51:54;10.80;99.90
14670;DHT22;7423;48.722;9.350;2024-03-22T03:54:20;10.80;99.90
14670;DHT22;7423;48.722;9.350;2024-03-22T03:56:46;10.80;99.90
14670;DHT22;7423;48.722;9.350;2024-03-22T03:59:12;10.80;99.90
14670;DHT22;7423;48.722;9.350;2024-03-22T04:01:38;10.70;99.90
14670;DHT22;7423;48.722;9.350;2024-03-22T04:04:04;12.10;99.90
14670;DHT22;7423;48.722;9.350;2024-03-22T04:06:30;10.80;99.90
14670;DHT22;7423;48.722;9.350;2024-03-22T04:08:56;10.70;99.90
14670;DHT22;7423;48.722;9.350;2024-03-22T04:11:23;10.70;99.90
14670;DHT22;7423;48.722;9.350;2024-03-22T04:13:49;10.70;99.90
14670;DHT22;7423;48.722;9.350;2024-03-22T04:16:15;10.70;99.90
14670;DHT22;7423;48.722;9.350;2024-03-22T04:18:41;10.60;99.90
14670;DHT22;7423;48.722;9.350;2024-03-22T04:21:07;10.60;99.90
14670;DHT22;7423;48.722;9.350;2024-03-22T04:23:33;10.60;99.90
14670;DHT22;7423;48.722;9.350;2024-03-22T04:26:00;10.60;99.90
14670;DHT22;7423;48.722;9.350;2024-03-22T04:28:30;10.60;99.90
14670;DHT22;7423;48.722;9.350;2024-03-22T04:31:05;11.20;99.90
14670;DHT22;7423;48.722;9.350;2024-03-22T04:33:35;10.60;99.90
14670;DHT22;7423;48.722;9.350;2024-03-22T04:36:01;10.60;99.90
14670;DHT22;7423;48.722;9.350;2024-03-22T04:38:28;10.60;99.90
14670;DHT22;7423;48.722;9.350;2024-03-22T04:40:55;9.00;99.90
14670;DHT22;7423;48.722;9.350;2024-03-22T04:43:23;10.60;99.90
14670;DHT22;7423;48.722;9.350;2024-03-22T04:45:50;10.50;99.90
14670;DHT22;7423;48.722;9.350;2024-03-22T04:48:21;10.50;99.90
14670;DHT22;7423;48.722;9.350;2024-03-22T04:50:48;10.60;99.90
14670;DHT22;7423;48.722;9.350;2024-03-22T04:53:18;10.60;99.90
14670;DHT22;7423;48.722;9.350;2024-03-22T04:55:47;10.50;99.90
14670;DHT22;7423;48.722;9.350;2024-03-22T04:58:14;10.50;99.90
14670;DHT22;7423;48.722;9.350;2024-03-22T05:00:42;10.50;99.90
14670;DHT22;7423;48.722;9.350;2024-03-22T05:03:08;10.50;99.90
14670;DHT22;7423;48.722;9.350;2024-03-22T05:05:35;10.50;99.90
14670;DHT22;7423;48.722;9.350;2024-03-22T05:08:01;10.50;99.90
14670;DHT22;7423;48.722;9.350;2024-03-22T05:10:29;10.50;99.90
14670;DHT22;7423;48.722;9.350;2024-03-22T05:12:56;10.50;99.90
14670;DHT22;7423;48.722;9.350;2024-03-22T05:15:22;10.50;99.90
14670;DHT22;7423;48.722;9.350;2024-03-22T05:17:49;10.50;99.90
14670;DHT22;7423;48.722;9.350;2024-03-22T05:20:15;10.40;99.90
14670;DHT22;7423;48.722;9.350;2024-03-22T05:22:42;10.50;99.90
14670;DHT22;7423;48.722;9.350;2024-03-22T05:25:09;10.50;99.90
14670;DHT22;7423;48.722;9.350;2024-03-22T05:27:35;10.50;99.90
14670;DHT22;7423;48.722;9.350;2024-03-22T05:30:02;10.50;99.90
14670;DHT22;7423;48.722;9.350;2024-03-22T05:32:31;10.40;99.90
14670;DHT22;7423;48.722;9.350;2024-03-22T05:34:57;10.50;99.90
14670;DHT22;7423;48.722;9.350;2024-03-22T05:37:23;10.40;99.90
14670;DHT22;7423;48.722;9.350;2024-03-22T05:39:49;10.40;99.90
14670;DHT22;7423;48.722;9.350;2024-03-22T05:42:15;11.70;99.90
14670;DHT22;7423;48.722;9.350;2024-03-22T05:44:41;10.40;99.90
14670;DHT22;7423;48.722;9.350;2024-03-22T05:47:07;10.40;99.90
14670;DHT22;7423;48.722;9.350;2024-03-22T05:49:33;10.40;99.90
14670;DHT22;7423;48.722;9.350;2024-03-22T05:51:59;10.40;99.90
14670;DHT22;7423;48.722;9.350;2024-03-22T05:54:25;10.50;99.90
14670;DHT22;7423;48.722;9.350;2024-03-22T05:56:51;10.50;99.90
14670;DHT22;7423;48.722;9.350;2024-03-22T05:59:17;10.50;99.90
14670;DHT22;7423;48.722;9.350;2024-03-22T06:01:43;10.60;99.90
14670;DHT22;7423;48.722;9.350;2024-03-22T06:04:08;10.60;99.90
14670;DHT22;7423;48.722;9.350;2024-03-22T06:06:35;10.60;99.90
14670;DHT22;7423;48.722;9.350;2024-03-22T06:09:02;10.60;99.90
14670;DHT22;7423;48.722;9.350;2024-03-22T06:11:35;10.60;99.90
14670;DHT22;7423;48.722;9.350;2024-03-22T06:14:01;10.60;99.90
14670;DHT22;7423;48.722;9.350;2024-03-22T06:16:27;10.60;99.90
14670;DHT22;7423;48.722;9.350;2024-03-22T06:18:53;10.70;99.90
14670;DHT22;7423;48.722;9.350;2024-03-22T06:21:19;10.70;99.90
14670;DHT22;7423;48.722;9.350;2024-03-22T06:23:51;10.70;99.90
14670;DHT22;7423;48.722;9.350;2024-03-22T06:26:17;10.70;99.90
14670;DHT22;7423;48.722;9.350;2024-03-22T06:28:44;10.70;99.90
14670;DHT22;7423;48.722;9.350;2024-03-22T06:31:09;10.80;99.90
14670;DHT22;7423;48.722;9.350;2024-03-22T06:33:36;10.80;99.90
14670;DHT22;7423;48.722;9.350;2024-03-22T06:36:02;10.80;99.90
14670;DHT22;7423;48.722;9.350;2024-03-22T06:38:29;10.80;99.90
14670;DHT22;7423;48.722;9.350;2024-03-22T06:40:55;10.80;99.90
14670;DHT22;7423;48.722;9.350;2024-03-22T06:43:21;10.80;99.90
14670;DHT22;7423;48.722;9.350;2024-03-22T06:45:47;10.90;99.90
14670;DHT22;7423;48.722;9.350;2024-03-22T06:48:13;10.90;99.90
14670;DHT22;7423;48.722;9.350;2024-03-22T06:50:41;10.90;99.90
14670;DHT22;7423;48.722;9.350;2024-03-22T06:53:08;10.90;99.90
14670;DHT22;7423;48.722;9.350;2024-03-22T06:55:36;11.00;99.90
14670;DHT22;7423;48.722;9.350;2024-03-22T06:58:02;11.00;99.90
14670;DHT22;7423;48.722;9.350;2024-03-22T07:00:28;11.10;99.90
14670;DHT22;7423;48.722;9.350;2024-03-22T07:02:54;11.10;99.90
14670;DHT22;7423;48.722;9.350;2024-03-22T07:05:21;11.10;99.90
14670;DHT22;7423;48.722;9.350;2024-03-22T07:07:47;11.20;99.90
14670;DHT22;7423;48.722;9.350;2024-03-22T07:10:14;11.20;99.90
14670;DHT22;7423;48.722;9.350;2024-03-22T07:12:40;11.20;99.90
14670;DHT22;7423;48.722;9.350;2024-03-22T07:15:06;11.30;99.90
14670;DHT22;7423;48.722;9.350;2024-03-22T07:17:32;11.30;99.90
14670;DHT22;7423;48.722;9.350;2024-03-22T07:19:58;12.60;99.90
14670;DHT22;7423;48.722;9.350;2024-03-22T07:22:24;11.50;99.90
14670;DHT22;7423;48.722;9.350;2024-03-22T07:24:50;11.60;99.90
14670;DHT22;7423;48.722;9.350;2024-03-22T07:27:17;11.60;99.90
14670;DHT22;7423;48.722;9.350;2024-03-22T07:29:44;11.70;99.90
14670;DHT22;7423;48.722;9.350;2024-03-22T07:32:10;11.70;99.90
14670;DHT22;7423;48.722;9.350;2024-03-22T07:34:36;11.80;99.90
14670;DHT22;7423;48.722;9.350;2024-03-22T07:37:02;11.80;99.90
14670;DHT22;7423;48.722;9.350;2024-03-22T07:39:30;11.80;99.90
14670;DHT22;7423;48.722;9.350;2024-03-22T07:41:56;11.80;99.90
14670;DHT22;7423;48.722;9.350;2024-03-22T07:44:22;11.90;99.90
14670;DHT22;7423;48.722;9.350;2024-03-22T07:46:52;12.00;99.90
14670;DHT22;7423;48.722;9.350;2024-03-22T07:49:18;12.00;99.90
14670;DHT22;7423;48.722;9.350;2024-03-22T07:51:44;12.10;99.90
14670;DHT22;7423;48.722;9.350;2024-03-22T07:54:12;12.10;99.90
14670;DHT22;7423;48.722;9.350;2024-03-22T07:56:38;12.20;99.90
14670;DHT22;7423;48.722;9.350;2024-03-22T07:59:04;12.20;99.90
14670;DHT22;7423;48.722;9.350;2024-03-22T08:01:30;12.30;99.90
14670;DHT22;7423;48.722;9.350;2024-03-22T08:03:56;12.30;99.90
14670;DHT22;7423;48.722;9.350;2024-03-22T08:06:22;12.30;99.90
14670;DHT22;7423;48.722;9.350;2024-03-22T08:08:48;12.40;99.90
14670;DHT22;7423;48.722;9.350;2024-03-22T08:11:15;12.40;99.90
14670;DHT22;7423;48.722;9.350;2024-03-22T08:13:42;12.50;99.90
14670;DHT22;7423;48.722;9.350;2024-03-22T08:16:08;12.50;99.90
14670;DHT22;7423;48.722;9.350;2024-03-22T08:18:34;12.50;99.90
14670;DHT22;7423;48.722;9.350;2024-03-22T08:21:00;12.70;99.90
14670;DHT22;7423;48.722;9.350;2024-03-22T08:23:26;12.70;99.90
14670;DHT22;7423;48.722;9.350;2024-03-22T08:25:53;12.70;99.90
14670;DHT22;7423;48.722;9.350;2024-03-22T08:28:19;12.80;99.90
14670;DHT22;7423;48.722;9.350;2024-03-22T08:30:45;12.80;99.90
14670;DHT22;7423;48.722;9.350;2024-03-22T08:33:11;12.80;99.90
14670;DHT22;7423;48.722;9.350;2024-03-22T08:35:37;13.00;99.90
14670;DHT22;7423;48.722;9.350;2024-03-22T08:38:04;13.00;99.90
14670;DHT22;7423;48.722;9.350;2024-03-22T08:40:31;13.00;99.90
14670;DHT22;7423;48.722;9.350;2024-03-22T08:42:57;13.10;99.90
14670;DHT22;7423;48.722;9.350;2024-03-22T08:45:24;13.10;99.90
14670;DHT22;7423;48.722;9.350;2024-03-22T08:47:50;13.20;99.90
14670;DHT22;7423;48.722;9.350;2024-03-22T08:50:16;13.20;99.90
14670;DHT22;7423;48.722;9.350;2024-03-22T08:52:42;13.30;99.90
14670;DHT22;7423;48.722;9.350;2024-03-22T08:55:08;13.30;99.90
14670;DHT22;7423;48.722;9.350;2024-03-22T08:57:36;13.40;99.90
14670;DHT22;7423;48.722;9.350;2024-03-22T09:00:02;13.40;99.90
14670;DHT22;7423;48.722;9.350;2024-03-22T09:02:29;13.50;99.90
14670;DHT22;7423;48.722;9.350;2024-03-22T09:04:55;13.50;99.90
14670;DHT22;7423;48.722;9.350;2024-03-22T09:07:21;13.60;99.90
14670;DHT22;7423;48.722;9.350;2024-03-22T09:09:49;13.60;99.90
14670;DHT22;7423;48.722;9.350;2024-03-22T09:12:19;13.70;99.90
14670;DHT22;7423;48.722;9.350;2024-03-22T09:14:45;13.70;99.90
14670;DHT22;7423;48.722;9.350;2024-03-22T09:17:12;13.80;99.90
14670;DHT22;7423;48.722;9.350;2024-03-22T09:19:38;13.80;99.90
14670;DHT22;7423;48.722;9.350;2024-03-22T09:22:04;13.90;99.90
14670;DHT22;7423;48.722;9.350;2024-03-22T09:24:31;13.90;99.90
14670;DHT22;7423;48.722;9.350;2024-03-22T09:26:57;14.00;99.90
14670;DHT22;7423;48.722;9.350;2024-03-22T09:29:25;14.00;99.90
14670;DHT22;7423;48.722;9.350;2024-03-22T09:31:52;14.10;99.90
14670;DHT22;7423;48.722;9.350;2024-03-22T09:34:18;14.10;99.90
14670;DHT22;7423;48.722;9.350;2024-03-22T09:36:45;14.20;99.90
14670;DHT22;7423;48.722;9.350;2024-03-22T09:39:11;14.30;99.90
14670;DHT22;7423;48.722;9.350;2024-03-22T09:41:42;14.30;99.90
14670;DHT22;7423;48.722;9.350;2024-03-22T09:44:13;14.30;99.90
14670;DHT22;7423;48.722;9.350;2024-03-22T09:46:42;14.40;99.90
14670;DHT22;7423;48.722;9.350;2024-03-22T09:49:10;14.50;99.90
14670;DHT22;7423;48.722;9.350;2024-03-22T09:51:37;14.50;99.90
14670;DHT22;7423;48.722;9.350;2024-03-22T09:54:04;14.60;99.90
14670;DHT22;7423;48.722;9.350;2024-03-22T09:56:31;14.70;99.90
14670;DHT22;7423;48.722;9.350;2024-03-22T09:58:58;14.70;99.90
14670;DHT22;7423;48.722;9.350;2024-03-22T10:01:25;14.80;99.90
14670;DHT22;7423;48.722;9.350;2024-03-22T10:03:54;14.90;99.90
14670;DHT22;7423;48.722;9.350;2024-03-22T10:06:21;14.90;99.90
14670;DHT22;7423;48.722;9.350;2024-03-22T10:08:47;15.00;99.90
14670;DHT22;7423;48.722;9.350;2024-03-22T10:11:14;15.00;99.90
14670;DHT22;7423;48.722;9.350;2024-03-22T10:13:40;15.10;99.90
14670;DHT22;7423;48.722;9.350;2024-03-22T10:16:06;15.20;99.90
14670;DHT22;7423;48.722;9.350;2024-03-22T10:18:33;15.30;99.90
14670;DHT22;7423;48.722;9.350;2024-03-22T10:21:05;15.40;99.90
14670;DHT22;7423;48.722;9.350;2024-03-22T10:23:32;15.40;99.90
14670;DHT22;7423;48.722;9.350;2024-03-22T10:25:59;15.50;99.90
14670;DHT22;7423;48.722;9.350;2024-03-22T10:28:26;15.50;99.90
14670;DHT22;7423;48.722;9.350;2024-03-22T10:30:53;15.60;99.90
14670;DHT22;7423;48.722;9.350;2024-03-22T10:33:20;15.70;99.90
14670;DHT22;7423;48.722;9.350;2024-03-22T10:35:52;16.80;99.90
14670;DHT22;7423;48.722;9.350;2024-03-22T10:38:22;15.90;99.90
14670;DHT22;7423;48.722;9.350;2024-03-22T10:40:49;15.90;99.90
14670;DHT22;7423;48.722;9.350;2024-03-22T10:43:15;16.10;99.90
14670;DHT22;7423;48.722;9.350;2024-03-22T10:45:46;16.10;99.90
14670;DHT22;7423;48.722;9.350;2024-03-22T10:48:16;16.20;99.90
14670;DHT22;7423;48.722;9.350;2024-03-22T10:50:43;16.20;99.90
14670;DHT22;7423;48.722;9.350;2024-03-22T10:53:14;16.30;99.90
14670;DHT22;7423;48.722;9.350;2024-03-22T10:55:43;16.30;99.90
14670;DHT22;7423;48.722;9.350;2024-03-22T10:58:24;16.50;99.90
14670;DHT22;7423;48.722;9.350;2024-03-22T11:00:52;16.60;99.90
14670;DHT22;7423;48.722;9.350;2024-03-22T11:03:23;16.60;99.90
14670;DHT22;7423;48.722;9.350;2024-03-22T11:05:54;16.60;99.90
14670;DHT22;7423;48.722;9.350;2024-03-22T11:08:31;16.70;99.90
14670;DHT22;7423;48.722;9.350;2024-03-22T11:10:57;16.90;99.90
14670;DHT22;7423;48.722;9.350;2024-03-22T11:13:23;16.80;99.90
14670;DHT22;7423;48.722;9.350;2024-03-22T11:15:50;17.10;99.90
14670;DHT22;7423;48.722;9.350;2024-03-22T11:18:17;17.10;99.90
14670;DHT22;7423;48.722;9.350;2024-03-22T11:20:44;17.10;99.90
14670;DHT22;7423;48.722;9.350;2024-03-22T11:23:12;17.20;99.90
14670;DHT22;7423;48.722;9.350;2024-03-22T11:25:38;17.20;99.90
14670;DHT22;7423;48.722;9.350;2024-03-22T11:28:05;17.20;99.90
14670;DHT22;7423;48.722;9.350;2024-03-22T11:30:35;17.30;99.90
14670;DHT22;7423;48.722;9.350;2024-03-22T11:33:07;17.40;99.90
14670;DHT22;7423;48.722;9.350;2024-03-22T11:35:33;17.50;99.90
14670;DHT22;7423;48.722;9.350;2024-03-22T11:38:00;17.60;99.90
14670;DHT22;7423;48.722;9.350;2024-03-22T11:40:26;17.60;99.90
14670;DHT22;7423;48.722;9.350;2024-03-22T11:42:54;17.80;99.90
14670;DHT22;7423;48.722;9.350;2024-03-22T11:45:21;17.80;99.90
14670;DHT22;7423;48.722;9.350;2024-03-22T11:47:48;17.90;99.90
14670;DHT22;7423;48.722;9.350;2024-03-22T11:50:15;18.00;99.90
14670;DHT22;7423;48.722;9.350;2024-03-22T11:52:44;18.10;99.90
14670;DHT22;7423;48.722;9.350;2024-03-22T11:55:13;18.10;99.90
14670;DHT22;7423;48.722;9.350;2024-03-22T11:57:40;18.00;99.90
14670;DHT22;7423;48.722;9.350;2024-03-22T12:00:07;18.10;99.90
14670;DHT22;7423;48.722;9.350;2024-03-22T12:02:38;17.70;99.90
14670;DHT22;7423;48.722;9.350;2024-03-22T12:05:05;18.10;99.90
14670;DHT22;7423;48.722;9.350;2024-03-22T12:07:31;18.30;99.90
14670;DHT22;7423;48.722;9.350;2024-03-22T12:10:00;18.30;99.90
14670;DHT22;7423;48.722;9.350;2024-03-22T12:12:26;18.40;99.90
14670;DHT22;7423;48.722;9.350;2024-03-22T12:14:54;18.40;99.90
14670;DHT22;7423;48.722;9.350;2024-03-22T12:17:20;18.50;99.90
14670;DHT22;7423;48.722;9.350;2024-03-22T12:19:47;18.60;99.90
14670;DHT22;7423;48.722;9.350;2024-03-22T12:22:13;18.60;99.90
14670;DHT22;7423;48.722;9.350;2024-03-22T12:24:39;18.70;99.90
14670;DHT22;7423;48.722;9.350;2024-03-22T12:27:05;18.70;99.90
14670;DHT22;7423;48.722;9.350;2024-03-22T12:29:35;18.70;99.90
14670;DHT22;7423;48.722;9.350;2024-03-22T12:32:02;18.80;99.60
14670;DHT22;7423;48.722;9.350;2024-03-22T12:34:30;18.90;98.80
14670;DHT22;7423;48.722;9.350;2024-03-22T12:36:59;19.00;97.90
14670;DHT22;7423;48.722;9.350;2024-03-22T12:39:26;19.00;98.00
14670;DHT22;7423;48.722;9.350;2024-03-22T12:41:52;19.10;97.60
14670;DHT22;7423;48.722;9.350;2024-03-22T12:44:19;19.30;97.90
14670;DHT22;7423;48.722;9.350;2024-03-22T12:46:46;19.30;98.70
14670;DHT22;7423;48.722;9.350;2024-03-22T12:49:12;19.40;97.50
14670;DHT22;7423;48.722;9.350;2024-03-22T12:51:38;19.50;98.00
14670;DHT22;7423;48.722;9.350;2024-03-22T12:54:05;19.40;98.90
14670;DHT22;7423;48.722;9.350;2024-03-22T12:56:33;19.40;99.00
14670;DHT22;7423;48.722;9.350;2024-03-22T12:58:59;19.50;97.60
14670;DHT22;7423;48.722;9.350;2024-03-22T13:01:25;19.50;97.50
14670;DHT22;7423;48.722;9.350;2024-03-22T13:03:52;19.60;97.70
14670;DHT22;7423;48.722;9.350;2024-03-22T13:06:17;19.70;97.80
14670;DHT22;7423;48.722;9.350;2024-03-22T13:08:43;19.80;98.20
14670;DHT22;7423;48.722;9.350;2024-03-22T13:11:09;19.70;98.20
14670;DHT22;7423;48.722;9.350;2024-03-22T13:13:36;19.70;98.30
14670;DHT22;7423;48.722;9.350;2024-03-22T13:16:04;20.30;98.00
14670;DHT22;7423;48.722;9.350;2024-03-22T13:18:30;19.80;97.90
14670;DHT22;7423;48.722;9.350;2024-03-22T13:20:56;19.80;98.20
14670;DHT22;7423;48.722;9.350;2024-03-22T13:23:22;19.70;97.70
14670;DHT22;7423;48.722;9.350;2024-03-22T13:25:48;19.70;98.10
14670;DHT22;7423;48.722;9.350;2024-03-22T13:28:14;19.80;97.80
14670;DHT22;7423;48.722;9.350;2024-03-22T13:30:45;19.80;97.80
14670;DHT22;7423;48.722;9.350;2024-03-22T13:33:11;19.90;97.10
14670;DHT22;7423;48.722;9.350;2024-03-22T13:35:37;19.90;97.10
14670;DHT22;7423;48.722;9.350;2024-03-22T13:38:03;19.90;96.90
14670;DHT22;7423;48.722;9.350;2024-03-22T13:40:29;19.90;97.40
14670;DHT22;7423;48.722;9.350;2024-03-22T13:42:55;19.90;97.70
14670;DHT22;7423;48.722;9.350;2024-03-22T13:45:21;20.00;97.40
14670;DHT22;7423;48.722;9.350;2024-03-22T13:47:47;20.00;97.40
14670;DHT22;7423;48.722;9.350;2024-03-22T13:50:13;19.90;97.50
14670;DHT22;7423;48.722;9.350;2024-03-22T13:52:39;19.90;97.60
14670;DHT22;7423;48.722;9.350;2024-03-22T13:55:06;20.10;97.50
14670;DHT22;7423;48.722;9.350;2024-03-22T13:57:32;20.20;96.80
14670;DHT22;7423;48.722;9.350;2024-03-22T13:59:59;20.20;96.80
14670;DHT22;7423;48.722;9.350;2024-03-22T14:02:25;20.20;96.30
14670;DHT22;7423;48.722;9.350;2024-03-22T14:04:51;20.20;96.70
14670;DHT22;7423;48.722;9.350;2024-03-22T14:07:18;20.20;97.30
14670;DHT22;7423;48.722;9.350;2024-03-22T14:09:43;20.20;97.30
14670;DHT22;7423;48.722;9.350;2024-03-22T14:12:11;20.20;97.70
14670;DHT22;7423;48.722;9.350;2024-03-22T14:14:37;20.20;97.40
14670;DHT22;7423;48.722;9.350;2024-03-22T14:17:03;20.30;97.00
14670;DHT22;7423;48.722;9.350;2024-03-22T14:19:29;20.30;96.80
14670;DHT22;7423;48.722;9.350;2024-03-22T14:21:55;20.30;96.40
14670;DHT22;7423;48.722;9.350;2024-03-22T14:24:21;20.30;96.90
14670;DHT22;7423;48.722;9.350;2024-03-22T14:26:46;20.40;96.30
14670;DHT22;7423;48.722;9.350;2024-03-22T14:29:12;20.40;96.60
14670;DHT22;7423;48.722;9.350;2024-03-22T14:31:39;20.40;96.90
14670;DHT22;7423;48.722;9.350;2024-03-22T14:34:08;20.50;95.80
14670;DHT22;7423;48.722;9.350;2024-03-22T14:36:34;20.40;96.00
14670;DHT22;7423;48.722;9.350;2024-03-22T14:39:00;20.40;96.40
14670;DHT22;7423;48.722;9.350;2024-03-22T14:41:33;20.50;95.50
14670;DHT22;7423;48.722;9.350;2024-03-22T14:44:00;20.50;95.80
14670;DHT22;7423;48.722;9.350;2024-03-22T14:46:27;22.50;96.90
14670;DHT22;7423;48.722;9.350;2024-03-22T14:48:55;20.60;95.60
14670;DHT22;7423;48.722;9.350;2024-03-22T14:51:21;20.60;95.70
14670;DHT22;7423;48.722;9.350;2024-03-22T14:53:47;20.60;96.00
14670;DHT22;7423;48.722;9.350;2024-03-22T14:56:13;20.40;96.80
14670;DHT22;7423;48.722;9.350;2024-03-22T14:58:40;20.20;96.40
14670;DHT22;7423;48.722;9.350;2024-03-22T15:01:08;17.40;97.30
14670;DHT22;7423;48.722;9.350;2024-03-22T15:03:35;19.90;98.30
14670;DHT22;7423;48.722;9.350;2024-03-22T15:06:01;19.70;98.80
14670;DHT22;7423;48.722;9.350;2024-03-22T15:08:28;19.80;98.80
14670;DHT22;7423;48.722;9.350;2024-03-22T15:10:54;19.70;98.90
14670;DHT22;7423;48.722;9.350;2024-03-22T15:13:21;19.40;99.40
14670;DHT22;7423;48.722;9.350;2024-03-22T15:15:57;19.40;99.80
14670;DHT22;7423;48.722;9.350;2024-03-22T15:18:24;19.10;99.80
14670;DHT22;7423;48.722;9.350;2024-03-22T15:20:52;19.10;99.90
14670;DHT22;7423;48.722;9.350;2024-03-22T15:23:18;19.20;99.90
14670;DHT22;7423;48.722;9.350;2024-03-22T15:25:46;19.20;99.90
14670;DHT22;7423;48.722;9.350;2024-03-22T15:28:13;19.20;99.90
14670;DHT22;7423;48.722;9.350;2024-03-22T15:30:40;19.20;99.60
14670;DHT22;7423;48.722;9.350;2024-03-22T15:33:08;19.30;99.50
14670;DHT22;7423;48.722;9.350;2024-03-22T15:35:37;19.30;99.30
14670;DHT22;7423;48.722;9.350;2024-03-22T15:38:03;19.40;99.10
14670;DHT22;7423;48.722;9.350;2024-03-22T15:40:31;21.80;99.20
14670;DHT22;7423;48.722;9.350;2024-03-22T15:42:58;19.10;97.30